Time;durP1;ratioP1;P1;durP2;ratioP2;P2;SDS_P1;SDS_P2;PMS_P1;PMS_P2;Temp;Humidity;BMP_temperature;BMP_pressure;BME280_temperature;BME280_humidity;BME280_pressure;Samples;Min_cycle;Max_cycle;Signal;HPM_P1;HPM_P2
2023/09/26 00:00:21;;;;;;;9.13;5.60;;;;;;;10.79;95.53;100979.69;5046350;28;20044;-69
2023/09/26 00:02:51;;;;;;;10.85;5.75;;;;;;;10.68;95.20;100982.91;5017625;28;20048;-71
2023/09/26 00:05:18;;;;;;;9.90;6.10;;;;;;;10.69;95.79;100989.97;5034503;28;20051;-72
2023/09/26 00:07:44;;;;;;;14.63;6.40;;;;;;;10.66;95.48;101000.78;5017961;28;20055;-72
2023/09/26 00:10:12;;;;;;;14.25;6.10;;;;;;;10.65;95.15;100987.53;5036134;28;20036;-69
2023/09/26 00:12:39;;;;;;;8.88;5.18;;;;;;;10.62;95.11;100999.22;5042153;28;20047;-70
2023/09/26 00:15:05;;;;;;;13.55;6.65;;;;;;;10.59;94.98;101014.53;5044374;28;20032;-67
2023/09/26 00:17:31;;;;;;;11.23;6.55;;;;;;;10.55;95.30;101003.13;5045331;28;20041;-70
2023/09/26 00:19:57;;;;;;;11.55;5.95;;;;;;;10.53;95.43;101011.19;5040930;28;20036;-71
2023/09/26 00:22:22;;;;;;;11.70;5.97;;;;;;;10.50;95.33;101006.00;5016141;28;20040;-69
2023/09/26 00:24:48;;;;;;;10.82;6.30;;;;;;;10.48;95.51;101007.91;5000245;28;20055;-67
2023/09/26 00:27:13;;;;;;;9.32;5.72;;;;;;;10.45;95.46;101002.72;5037936;28;20040;-70
2023/09/26 00:29:40;;;;;;;15.00;6.10;;;;;;;10.41;95.41;101006.47;5021082;28;20055;-69
2023/09/26 00:32:05;;;;;;;10.80;6.50;;;;;;;10.39;95.82;101005.69;5000194;28;20860;-70
2023/09/26 00:34:30;;;;;;;9.63;5.82;;;;;;;10.36;95.96;101008.53;5017055;28;20048;-73
2023/09/26 00:36:55;;;;;;;14.05;6.07;;;;;;;10.34;96.22;100999.72;5035798;28;20036;-71
2023/09/26 00:39:21;;;;;;;18.67;6.57;;;;;;;10.31;95.98;101013.19;5008808;28;20525;-69
2023/09/26 00:41:46;;;;;;;15.63;7.32;;;;;;;10.28;96.29;101021.34;4982054;28;20052;-71
2023/09/26 00:44:12;;;;;;;11.10;6.95;;;;;;;10.27;96.21;101014.28;5035328;28;20055;-72
2023/09/26 00:46:39;;;;;;;10.70;6.65;;;;;;;10.24;96.06;101029.56;5045814;28;20047;-71
2023/09/26 00:49:06;;;;;;;11.90;5.93;;;;;;;10.22;96.50;101021.66;5018194;28;20484;-73
2023/09/26 00:51:31;;;;;;;13.50;6.38;;;;;;;10.22;96.68;101005.66;5018727;28;20045;-70
2023/09/26 00:53:57;;;;;;;13.65;6.30;;;;;;;10.21;97.29;101019.03;5042577;28;20119;-69
2023/09/26 00:56:24;;;;;;;10.70;6.57;;;;;;;10.17;97.03;100983.63;5056201;28;20059;-70
2023/09/26 00:58:50;;;;;;;13.77;6.60;;;;;;;10.15;96.86;101010.41;5038242;28;20044;-69
2023/09/26 01:01:15;;;;;;;12.43;6.57;;;;;;;10.11;96.71;101023.94;5054213;28;20526;-69
2023/09/26 01:03:43;;;;;;;10.20;6.22;;;;;;;10.09;96.68;101020.47;5054226;28;20051;-68
2023/09/26 01:06:09;;;;;;;11.65;6.30;;;;;;;10.08;97.11;101013.41;5038211;28;20058;-70
2023/09/26 01:08:34;;;;;;;9.30;6.22;;;;;;;10.08;96.61;101013.41;5038120;28;20063;-71
2023/09/26 01:11:00;;;;;;;17.98;6.80;;;;;;;10.02;97.32;101025.22;5056326;28;20048;-71
2023/09/26 01:13:25;;;;;;;12.88;6.78;;;;;;;10.04;96.95;101011.84;5055939;28;20044;-71
2023/09/26 01:15:50;;;;;;;14.35;7.25;;;;;;;10.01;97.13;101017.31;5026161;28;20056;-73
2023/09/26 01:18:17;;;;;;;12.35;6.97;;;;;;;9.99;97.18;101016.50;5012916;28;20787;-72
2023/09/26 01:20:44;;;;;;;15.20;6.53;;;;;;;9.97;96.78;101021.03;5017197;28;20036;-70
2023/09/26 01:23:14;;;;;;;16.98;7.13;;;;;;;9.97;97.58;101037.03;5031492;28;20045;-73
2023/09/26 01:25:40;;;;;;;11.65;6.85;;;;;;;9.94;97.54;101053.13;5017827;28;20048;-74
2023/09/26 01:28:07;;;;;;;10.38;7.00;;;;;;;9.94;97.28;101043.34;5035870;28;20040;-73
2023/09/26 01:30:35;;;;;;;16.65;8.23;;;;;;;9.92;97.07;101013.28;5032107;28;20044;-73
2023/09/26 01:33:03;;;;;;;16.58;8.20;;;;;;;9.90;97.49;101020.47;5025636;28;20438;-72
2023/09/26 01:35:28;;;;;;;14.30;7.10;;;;;;;9.87;97.68;101030.41;5002711;28;20079;-71
2023/09/26 01:37:54;;;;;;;21.25;8.07;;;;;;;9.86;97.69;101008.22;5000674;28;20423;-71
2023/09/26 01:40:19;;;;;;;15.77;7.45;;;;;;;9.84;97.19;101008.28;5034642;28;20037;-71
2023/09/26 01:42:44;;;;;;;17.05;7.20;;;;;;;9.81;97.76;101011.13;5000776;28;20044;-71
2023/09/26 01:45:10;;;;;;;9.93;6.13;;;;;;;9.78;97.98;101011.25;5017979;28;20501;-72
2023/09/26 01:47:55;;;;;;;15.05;6.88;;;;;;;9.87;98.10;101004.63;5034643;28;20044;-73
2023/09/26 01:50:21;;;;;;;13.23;7.38;;;;;;;9.79;97.80;101013.00;5016876;28;20549;-75
2023/09/26 01:52:47;;;;;;;13.68;6.82;;;;;;;9.75;97.24;101037.16;5007796;28;20040;-71
2023/09/26 01:55:16;;;;;;;17.23;7.47;;;;;;;9.76;97.31;101001.59;4980528;28;20071;-70
2023/09/26 01:57:41;;;;;;;11.45;6.40;;;;;;;9.73;96.94;101012.38;5015161;28;20075;-71
2023/09/26 02:00:10;;;;;;;12.65;6.60;;;;;;;9.72;97.32;101005.34;5034428;28;20047;-67
2023/09/26 02:02:42;;;;;;;10.98;5.72;;;;;;;9.73;96.89;101013.25;5035066;28;20605;-71
2023/09/26 02:05:10;;;;;;;12.70;7.25;;;;;;;9.65;96.68;101004.75;5017471;28;20055;-70
2023/09/26 02:07:36;;;;;;;13.52;6.80;;;;;;;9.68;97.11;100999.31;5035964;28;20052;-69
2023/09/26 02:10:03;;;;;;;12.30;7.07;;;;;;;9.67;97.38;100992.25;5046019;28;20053;-70
2023/09/26 02:12:37;;;;;;;12.73;6.20;;;;;;;9.67;97.11;101008.22;5032378;28;20051;-71
2023/09/26 02:15:06;;;;;;;9.02;6.07;;;;;;;9.65;96.95;101010.09;5055639;28;20769;-71
2023/09/26 02:17:35;;;;;;;17.17;7.82;;;;;;;9.64;97.23;101034.97;5019089;28;20052;-70
2023/09/26 02:20:03;;;;;;;13.32;6.68;;;;;;;9.63;97.00;101006.63;5029729;28;20045;-70
2023/09/26 02:22:35;;;;;;;16.38;6.07;;;;;;;9.62;97.45;101015.53;4997483;28;20561;-68
2023/09/26 02:25:00;;;;;;;11.82;7.18;;;;;;;9.60;96.90;101012.09;5022027;28;20044;-70
2023/09/26 02:27:25;;;;;;;12.00;7.03;;;;;;;9.59;97.25;101005.06;5000336;28;20044;-69
2023/09/26 02:29:51;;;;;;;10.38;6.15;;;;;;;9.58;97.38;101013.97;5034599;28;20049;-67
2023/09/26 02:32:17;;;;;;;9.50;7.35;;;;;;;9.56;97.57;101005.19;5024078;28;20047;-70
2023/09/26 02:34:42;;;;;;;15.38;7.47;;;;;;;9.54;97.13;101015.03;5019441;28;20082;-68
2023/09/26 02:37:08;;;;;;;12.43;6.22;;;;;;;9.51;97.11;101012.50;5054667;28;20039;-70
2023/09/26 02:39:33;;;;;;;11.43;6.43;;;;;;;9.49;97.67;101030.34;5031165;28;20055;-70
2023/09/26 02:41:58;;;;;;;10.32;6.50;;;;;;;9.48;97.44;101018.81;5035574;28;20036;-70
2023/09/26 02:44:23;;;;;;;13.05;6.53;;;;;;;9.49;97.64;101014.38;5054172;28;20052;-68
2023/09/26 02:46:49;;;;;;;12.82;7.05;;;;;;;9.46;97.32;101015.41;5054681;28;20051;-69
2023/09/26 02:49:14;;;;;;;10.40;6.25;;;;;;;9.45;97.81;101012.78;5054491;28;20043;-68
2023/09/26 02:51:39;;;;;;;11.18;6.82;;;;;;;9.44;97.71;101021.72;5020001;28;20522;-69
2023/09/26 02:54:04;;;;;;;10.25;6.30;;;;;;;9.42;97.57;101044.88;5019161;28;20044;-68
2023/09/26 02:56:30;;;;;;;10.43;6.05;;;;;;;9.41;97.41;101016.53;5017788;28;20056;-70
2023/09/26 02:58:55;;;;;;;13.93;6.85;;;;;;;9.39;97.62;101013.91;5034736;28;20059;-72
2023/09/26 03:01:20;;;;;;;13.85;7.40;;;;;;;9.39;97.54;101019.25;5016406;28;20048;-71
2023/09/26 03:03:46;;;;;;;12.40;6.85;;;;;;;9.38;97.34;101043.25;5016234;28;20051;-70
2023/09/26 03:06:11;;;;;;;11.80;6.22;;;;;;;9.38;97.72;101022.84;5015512;28;20059;-70
2023/09/26 03:08:36;;;;;;;10.63;5.88;;;;;;;9.38;97.33;100984.72;5014957;28;20071;-71
2023/09/26 03:11:03;;;;;;;9.93;6.60;;;;;;;9.37;97.42;101028.22;5015106;28;20040;-67
2023/09/26 03:13:32;;;;;;;13.80;7.30;;;;;;;9.37;97.39;101036.22;4996904;28;20059;-68
2023/09/26 03:15:58;;;;;;;9.90;6.25;;;;;;;9.33;97.38;101035.50;5003429;28;20040;-72
2023/09/26 03:18:24;;;;;;;9.82;6.88;;;;;;;9.34;97.41;101037.22;5016192;28;20119;-73
2023/09/26 03:20:50;;;;;;;11.93;6.60;;;;;;;9.33;97.30;101029.31;5016047;28;20076;-72
2023/09/26 03:23:15;;;;;;;10.18;6.38;;;;;;;9.32;97.27;101038.22;5016537;28;20055;-71
2023/09/26 03:25:40;;;;;;;10.82;6.55;;;;;;;9.30;96.97;101000.16;5029906;28;20048;-73
2023/09/26 03:28:06;;;;;;;16.92;7.05;;;;;;;9.26;96.73;101039.34;5007128;28;20415;-73
2023/09/26 03:30:31;;;;;;;15.73;6.95;;;;;;;9.24;96.68;101046.56;5009536;28;20044;-73
2023/09/26 03:32:56;;;;;;;12.10;6.95;;;;;;;9.26;96.83;101049.13;5003058;28;20045;-74
2023/09/26 03:35:22;;;;;;;12.77;7.18;;;;;;;9.27;96.90;101056.19;5020979;28;20047;-74
2023/09/26 03:37:47;;;;;;;17.80;8.13;;;;;;;9.30;96.77;101051.59;5019235;28;20055;-74
2023/09/26 03:40:13;;;;;;;12.40;7.15;;;;;;;9.37;97.05;101057.50;4996306;28;20048;-73
2023/09/26 03:42:38;;;;;;;11.52;6.60;;;;;;;9.44;97.06;101074.94;5051130;28;20047;-74
2023/09/26 03:45:04;;;;;;;14.35;6.93;;;;;;;9.53;96.85;101052.38;5016087;28;20410;-73
2023/09/26 03:47:30;;;;;;;19.02;6.35;;;;;;;9.65;96.24;101051.81;5036388;28;20052;-74
2023/09/26 03:49:56;;;;;;;16.65;7.65;;;;;;;9.74;95.68;101067.38;5036496;28;20430;-74
2023/09/26 03:52:21;;;;;;;12.80;7.57;;;;;;;9.89;95.40;101055.16;5021548;28;20052;-76
2023/09/26 03:54:46;;;;;;;10.25;6.20;;;;;;;10.01;94.91;101052.81;5020471;28;20044;-77
2023/09/26 03:57:11;;;;;;;11.60;6.95;;;;;;;10.15;93.85;101058.38;5037201;28;20426;-77
2023/09/26 03:59:36;;;;;;;11.38;6.82;;;;;;;10.30;93.41;101061.25;5037676;28;20043;-78
2023/09/26 04:02:02;;;;;;;12.88;7.70;;;;;;;10.46;92.25;101079.13;5055031;28;20040;-77
2023/09/26 04:04:28;;;;;;;15.02;7.63;;;;;;;10.61;91.38;101056.16;5023757;28;20059;-78
2023/09/26 04:06:54;;;;;;;13.30;7.32;;;;;;;10.76;90.43;101054.53;5059086;28;20036;-78
2023/09/26 04:09:19;;;;;;;10.77;6.30;;;;;;;10.90;89.28;101014.69;5058854;28;20044;-77
2023/09/26 04:11:44;;;;;;;13.70;7.07;;;;;;;11.02;88.97;101054.09;5039873;28;20398;-74
2023/09/26 04:14:09;;;;;;;12.52;7.43;;;;;;;11.15;87.58;101073.88;5055474;28;20056;-73
2023/09/26 04:16:34;;;;;;;14.55;7.38;;;;;;;11.31;86.30;101051.72;5022399;28;20192;-74
2023/09/26 04:19:00;;;;;;;16.42;7.63;;;;;;;11.46;85.55;101056.28;5055790;28;20518;-74
2023/09/26 04:21:25;;;;;;;10.35;6.88;;;;;;;11.60;85.41;101048.41;5022051;28;20044;-74
2023/09/26 04:23:50;;;;;;;15.52;7.03;;;;;;;11.70;84.31;101071.00;5057636;28;20397;-74
2023/09/26 04:26:15;;;;;;;11.73;7.13;;;;;;;11.82;83.65;101054.34;5022636;28;20044;-73
2023/09/26 04:28:42;;;;;;;13.23;7.30;;;;;;;11.94;82.87;101059.03;5039019;28;20060;-73
2023/09/26 04:31:18;;;;;;;21.42;8.45;;;;;;;12.08;82.45;101076.09;5057362;28;20494;-74
2023/09/26 04:33:44;;;;;;;10.05;6.32;;;;;;;12.13;81.79;101064.22;5023024;28;20410;-73
2023/09/26 04:36:09;;;;;;;22.02;8.52;;;;;;;12.26;81.58;101067.06;5057444;28;20036;-74
2023/09/26 04:38:35;;;;;;;14.70;7.60;;;;;;;12.39;81.51;101069.94;4999348;28;20056;-74
2023/09/26 04:41:04;;;;;;;12.77;6.57;;;;;;;12.54;80.73;101075.25;5017509;28;20048;-74
2023/09/26 04:43:33;;;;;;;11.38;7.63;;;;;;;12.65;80.30;101072.81;5036843;28;20415;-74
2023/09/26 04:45:58;;;;;;;13.13;7.20;;;;;;;12.75;79.55;101078.53;5037055;28;20487;-74
2023/09/26 04:48:24;;;;;;;13.20;7.18;;;;;;;12.85;79.20;101065.47;5036801;28;20044;-72
2023/09/26 04:50:49;;;;;;;14.15;7.45;;;;;;;12.94;79.45;101070.28;5018513;28;20411;-73
2023/09/26 04:53:15;;;;;;;15.95;7.70;;;;;;;13.00;79.07;101077.94;5036967;28;20056;-73
2023/09/26 04:55:44;;;;;;;21.48;9.32;;;;;;;13.14;79.60;101070.00;5019105;28;20044;-73
2023/09/26 04:58:09;;;;;;;15.15;7.78;;;;;;;13.27;79.42;101062.97;5017556;28;20059;-74
2023/09/26 05:00:36;;;;;;;23.90;9.23;;;;;;;13.45;78.99;101075.25;5034972;28;20051;-73
2023/09/26 05:03:01;;;;;;;15.27;8.32;;;;;;;13.60;78.15;101072.59;5018664;28;20797;-73
2023/09/26 05:05:27;;;;;;;20.90;9.55;;;;;;;13.72;77.91;101063.81;5005114;28;20459;-74
2023/09/26 05:07:53;;;;;;;21.30;9.77;;;;;;;13.97;77.09;101071.19;5056367;28;20048;-73
2023/09/26 05:10:18;;;;;;;23.23;10.15;;;;;;;14.17;76.62;101062.72;5037593;28;20047;-74
2023/09/26 05:12:44;;;;;;;30.83;13.50;;;;;;;14.50;75.73;101074.00;5021561;28;20031;-73
2023/09/26 05:15:12;;;;;;;21.38;12.07;;;;;;;14.94;75.14;101066.66;5055128;28;20499;-74
2023/09/26 05:17:42;;;;;;;26.25;12.75;;;;;;;15.38;73.20;101074.38;5056447;28;20418;-72
2023/09/26 05:20:10;;;;;;;26.23;14.32;;;;;;;15.71;71.64;101076.59;5038542;28;20047;-73
2023/09/26 05:22:38;;;;;;;22.83;12.68;;;;;;;15.97;70.29;101063.03;5038298;28;20406;-73
2023/09/26 05:25:04;;;;;;;25.10;11.88;;;;;;;16.17;69.02;101076.88;5038874;28;20047;-73
2023/09/26 05:27:29;;;;;;;29.15;12.38;;;;;;;16.30;68.28;101075.88;5056052;28;20043;-72
2023/09/26 05:29:55;;;;;;;27.10;12.82;;;;;;;16.60;67.66;101075.47;5056191;28;20074;-73
2023/09/26 05:32:20;;;;;;;22.80;13.02;;;;;;;16.99;66.81;101052.81;5038512;28;20063;-73
2023/09/26 05:34:45;;;;;;;22.13;11.82;;;;;;;17.65;65.14;101061.25;5037908;28;20040;-73
2023/09/26 05:37:10;;;;;;;22.50;11.25;;;;;;;18.48;62.74;101062.59;5037969;28;20414;-73
2023/09/26 05:39:36;;;;;;;17.35;11.10;;;;;;;19.36;60.42;101032.66;5055591;28;20040;-73
2023/09/26 05:42:01;;;;;;;24.88;12.35;;;;;;;19.92;57.19;101062.91;5055921;28;20043;-73
2023/09/26 05:44:26;;;;;;;23.15;10.45;;;;;;;20.46;55.37;101067.13;5011510;28;20037;-72
2023/09/26 05:46:52;;;;;;;18.02;11.43;;;;;;;20.80;54.14;101058.66;5037572;28;20056;-72
2023/09/26 05:49:17;;;;;;;16.67;9.95;;;;;;;21.26;52.90;101072.41;5054555;28;20047;-74
2023/09/26 05:51:42;;;;;;;19.90;10.18;;;;;;;21.84;51.47;101061.44;5055952;28;20055;-73
2023/09/26 05:54:07;;;;;;;19.30;8.30;;;;;;;22.57;49.70;101086.91;5055951;28;20047;-74
2023/09/26 05:56:32;;;;;;;18.30;10.10;;;;;;;23.45;48.04;101052.59;5055735;28;20068;-73
2023/09/26 05:58:58;;;;;;;14.10;8.38;;;;;;;24.07;45.82;101051.47;5027593;28;20515;-72
2023/09/26 06:01:23;;;;;;;13.35;9.02;;;;;;;24.53;44.52;101046.59;5014363;28;20104;-73
2023/09/26 06:03:50;;;;;;;18.33;8.88;;;;;;;24.92;43.90;101047.75;5015492;28;20056;-73
2023/09/26 06:06:16;;;;;;;16.48;9.05;;;;;;;25.35;43.05;101047.59;5014614;28;20055;-73
2023/09/26 06:08:41;;;;;;;16.92;8.55;;;;;;;26.01;42.00;101050.94;4997668;28;20037;-74
2023/09/26 06:11:07;;;;;;;13.75;8.20;;;;;;;26.45;40.86;101061.38;5033188;28;20048;-73
2023/09/26 06:13:33;;;;;;;18.23;8.00;;;;;;;26.20;40.68;101076.13;5055636;28;20044;-73
2023/09/26 06:15:58;;;;;;;14.35;7.53;;;;;;;25.88;40.58;101049.75;5017994;28;20059;-73
2023/09/26 06:18:23;;;;;;;14.35;8.50;;;;;;;25.98;39.82;101055.88;5037381;28;20052;-73
2023/09/26 06:20:48;;;;;;;10.45;7.38;;;;;;;26.68;37.81;101065.03;5052102;28;20051;-72
2023/09/26 06:23:14;;;;;;;12.02;7.72;;;;;;;27.40;36.18;101048.28;5051794;28;20051;-73
2023/09/26 06:25:39;;;;;;;8.60;6.88;;;;;;;28.21;35.40;101044.75;5024639;28;20373;-73
2023/09/26 06:28:05;;;;;;;15.07;8.82;;;;;;;29.15;33.67;101052.00;5039402;28;20036;-73
2023/09/26 06:30:30;;;;;;;12.27;7.45;;;;;;;29.98;31.73;101066.06;5049045;28;20052;-75
2023/09/26 06:32:55;;;;;;;12.90;7.10;;;;;;;30.36;31.54;101050.00;5038085;28;20075;-75
2023/09/26 06:35:20;;;;;;;8.70;6.88;;;;;;;30.74;30.83;101053.97;5011575;28;20051;-75
2023/09/26 06:37:45;;;;;;;12.05;6.82;;;;;;;30.97;30.33;101053.59;5017966;28;20047;-74
2023/09/26 06:40:11;;;;;;;6.97;6.10;;;;;;;31.36;29.74;101052.84;5000156;28;20052;-73
2023/09/26 06:42:37;;;;;;;13.20;6.43;;;;;;;31.82;28.29;101046.50;5000539;28;20036;-73
2023/09/26 06:45:03;;;;;;;14.23;6.88;;;;;;;32.30;28.16;101033.22;5036690;28;20055;-73
2023/09/26 06:47:33;;;;;;;13.20;6.78;;;;;;;32.79;27.38;101040.91;5001183;28;20044;-73
2023/09/26 06:49:58;;;;;;;10.27;5.88;;;;;;;32.47;27.02;101051.00;5035012;28;20055;-73
2023/09/26 06:52:24;;;;;;;9.68;5.05;;;;;;;31.57;27.27;101044.38;5016864;28;20045;-73
2023/09/26 06:54:50;;;;;;;7.18;5.00;;;;;;;31.58;26.96;101039.69;5044298;28;20549;-75
2023/09/26 06:57:20;;;;;;;8.93;5.25;;;;;;;31.97;26.69;101039.66;5052728;28;20047;-72
2023/09/26 06:59:50;;;;;;;15.40;11.80;;;;;;;32.50;26.24;101046.97;5036979;28;20513;-74
2023/09/26 07:02:16;;;;;;;7.38;5.68;;;;;;;32.56;26.13;101049.69;5054973;28;20502;-74
2023/09/26 07:04:42;;;;;;;8.68;5.80;;;;;;;32.88;25.68;101053.38;5054776;28;20040;-73
2023/09/26 07:07:07;;;;;;;9.60;4.97;;;;;;;33.16;25.13;101039.16;5054834;28;20039;-73
2023/09/26 07:09:32;;;;;;;8.05;5.10;;;;;;;33.57;24.93;101024.81;5039415;28;20055;-75
2023/09/26 07:11:57;;;;;;;8.73;5.65;;;;;;;33.90;24.57;101030.06;5035377;28;20040;-72
2023/09/26 07:14:22;;;;;;;6.70;5.35;;;;;;;34.62;23.95;101028.38;4999906;28;20060;-73
2023/09/26 07:16:48;;;;;;;9.80;5.97;;;;;;;35.48;22.95;101032.63;5034415;28;20047;-73
2023/09/26 07:19:13;;;;;;;7.43;5.25;;;;;;;36.24;22.15;101021.41;5016394;28;20510;-72
2023/09/26 07:21:38;;;;;;;8.35;5.68;;;;;;;36.77;21.51;101006.41;5035019;28;20039;-74
2023/09/26 07:24:04;;;;;;;13.68;7.00;;;;;;;37.00;21.12;101020.19;5034478;28;20071;-73
2023/09/26 07:26:32;;;;;;;10.70;5.75;;;;;;;37.30;20.48;101030.19;5034348;28;20044;-73
2023/09/26 07:28:57;;;;;;;6.15;5.05;;;;;;;37.83;20.42;101006.53;5034486;28;20049;-74
2023/09/26 07:31:23;;;;;;;11.93;6.75;;;;;;;38.29;19.91;101017.22;5034225;28;20048;-74
2023/09/26 07:33:49;;;;;;;8.40;5.30;;;;;;;38.48;19.32;101015.81;5033105;28;20060;-74
2023/09/26 07:36:15;;;;;;;5.82;5.13;;;;;;;38.89;19.28;101015.44;4999229;28;20055;-75
2023/09/26 07:38:40;;;;;;;8.07;5.90;;;;;;;39.18;19.24;101014.91;5035852;28;20070;-75
2023/09/26 07:41:05;;;;;;;7.82;5.28;;;;;;;39.52;18.91;101020.22;5020125;28;20415;-75
2023/09/26 07:43:34;;;;;;;7.60;6.22;;;;;;;39.78;18.59;100996.13;5036278;28;20075;-75
2023/09/26 07:46:07;;;;;;;8.35;7.50;;;;;;;40.26;18.57;100995.84;5038252;28;20048;-75
2023/09/26 07:48:34;;;;;;;13.65;8.27;;;;;;;40.52;18.05;101007.97;5038117;28;20059;-74
2023/09/26 07:50:59;;;;;;;8.27;6.90;;;;;;;40.73;18.17;101005.28;5003362;28;20427;-74
2023/09/26 07:53:24;;;;;;;9.25;7.03;;;;;;;40.33;18.25;101011.53;5035783;28;20059;-73
2023/09/26 07:55:49;;;;;;;10.25;6.93;;;;;;;40.36;18.33;101023.03;5003086;28;20051;-75
2023/09/26 07:58:15;;;;;;;12.80;8.02;;;;;;;40.46;17.91;100995.09;5037456;28;20060;-75
2023/09/26 08:00:41;;;;;;;12.82;7.07;;;;;;;40.79;17.90;101004.16;5037900;28;20040;-73
2023/09/26 08:03:06;;;;;;;7.22;6.25;;;;;;;40.75;17.92;101019.81;5028155;28;20054;-75
2023/09/26 08:05:31;;;;;;;8.77;6.90;;;;;;;40.25;18.16;100973.75;5057808;28;20043;-74
2023/09/26 08:07:58;;;;;;;9.05;6.32;;;;;;;38.38;19.18;100990.59;5039842;28;20051;-73
2023/09/26 08:10:23;;;;;;;7.25;6.28;;;;;;;36.16;21.01;101007.88;5057774;28;20049;-73
2023/09/26 08:12:49;;;;;;;10.18;6.55;;;;;;;34.16;23.09;101001.22;5039897;28;20048;-72
2023/09/26 08:15:14;;;;;;;13.43;6.35;;;;;;;32.58;24.20;100997.00;5035891;28;20050;-73
2023/09/26 08:17:39;;;;;;;8.15;6.05;;;;;;;31.27;26.07;100994.31;5057962;28;20051;-74
2023/09/26 08:20:05;;;;;;;16.23;5.90;;;;;;;30.03;27.26;100998.38;5006242;28;20502;-73
2023/09/26 08:22:30;;;;;;;11.07;6.47;;;;;;;28.91;28.67;100994.72;5038774;28;20047;-73
2023/09/26 08:24:56;;;;;;;9.60;5.30;;;;;;;27.89;29.91;101024.00;5057534;28;20062;-73
2023/09/26 08:27:21;;;;;;;5.75;5.07;;;;;;;27.04;30.92;101016.06;5057405;28;20048;-73
2023/09/26 08:29:46;;;;;;;9.35;5.80;;;;;;;26.43;32.42;101000.53;5039313;28;20039;-73
2023/09/26 08:32:11;;;;;;;9.18;5.55;;;;;;;25.97;33.72;101004.97;5039412;28;20040;-72
2023/09/26 08:34:37;;;;;;;8.23;5.05;;;;;;;25.84;34.08;100989.16;5037965;28;20415;-72
2023/09/26 08:37:02;;;;;;;7.05;5.55;;;;;;;26.38;33.54;100998.34;5037348;28;20059;-72
2023/09/26 08:39:27;;;;;;;16.58;5.75;;;;;;;26.49;33.08;100993.50;5036951;28;20348;-72
2023/09/26 08:41:53;;;;;;;9.73;4.90;;;;;;;26.19;34.49;100992.41;5019407;28;20099;-72
2023/09/26 08:44:18;;;;;;;12.23;5.95;;;;;;;25.70;34.30;100998.09;5019445;28;20047;-75
2023/09/26 08:46:45;;;;;;;10.63;5.68;;;;;;;25.24;34.73;101008.69;5019351;28;20048;-75
2023/09/26 08:49:10;;;;;;;9.90;4.80;;;;;;;24.85;35.85;100980.34;5036772;28;20040;-76
2023/09/26 08:51:36;;;;;;;10.43;6.13;;;;;;;24.45;35.86;100994.78;5016473;28;20860;-76
2023/09/26 08:54:02;;;;;;;10.57;5.63;;;;;;;24.12;36.32;100991.91;5017694;28;20045;-76
2023/09/26 08:56:27;;;;;;;13.70;5.78;;;;;;;23.91;37.07;100998.81;5017000;28;20048;-77
2023/09/26 08:58:55;;;;;;;8.68;5.32;;;;;;;23.79;37.38;100992.78;5017067;28;20056;-75
2023/09/26 09:01:20;;;;;;;9.90;5.25;;;;;;;24.35;38.15;100992.19;5000389;28;20041;-78
2023/09/26 09:03:46;;;;;;;6.13;4.93;;;;;;;25.92;36.30;100980.94;4999783;28;20061;-78
2023/09/26 09:06:11;;;;;;;13.25;5.10;;;;;;;27.77;33.74;101001.69;5004745;28;20043;-76
2023/09/26 09:08:36;;;;;;;7.53;5.13;;;;;;;29.83;30.24;100978.16;5037894;28;20689;-79
2023/09/26 09:11:02;;;;;;;8.27;5.75;;;;;;;32.21;27.25;100965.53;5037650;28;20131;-78
2023/09/26 09:13:32;;;;;;;8.20;5.57;;;;;;;34.37;24.22;100964.78;5037310;28;20518;-77
2023/09/26 09:16:08;;;;;;;8.25;5.68;;;;;;;36.51;21.82;100945.84;5036669;28;20491;-78
2023/09/26 09:18:35;;;;;;;7.68;6.13;;;;;;;37.70;21.21;100958.47;5019051;28;20071;-79
2023/09/26 09:21:00;;;;;;;8.60;6.50;;;;;;;38.20;20.09;100978.94;5037108;28;20036;-77
2023/09/26 09:23:26;;;;;;;6.90;6.20;;;;;;;38.04;20.68;100952.81;5055623;28;20048;-77
2023/09/26 09:25:51;;;;;;;10.05;5.60;;;;;;;37.21;21.46;100921.28;5056697;28;20043;-78
2023/09/26 09:28:20;;;;;;;9.70;6.90;;;;;;;37.00;21.08;100955.41;5056409;28;20047;-76
2023/09/26 09:30:45;;;;;;;8.00;6.20;;;;;;;37.27;21.04;100939.72;5021544;28;20402;-77
2023/09/26 09:33:13;;;;;;;7.68;6.78;;;;;;;37.63;19.79;100943.06;5056406;28;20496;-76
2023/09/26 09:35:39;;;;;;;14.68;6.50;;;;;;;37.12;20.10;100949.75;5038022;28;20047;-76
2023/09/26 09:38:08;;;;;;;7.55;5.85;;;;;;;35.42;21.30;100948.47;5038351;28;20419;-79
2023/09/26 09:40:34;;;;;;;6.65;5.80;;;;;;;33.75;22.54;100941.06;5059156;28;20051;-80
2023/09/26 09:43:00;;;;;;;7.38;5.47;;;;;;;32.40;24.06;100939.75;5038307;28;20036;-79
2023/09/26 09:45:28;;;;;;;10.57;6.13;;;;;;;31.24;25.32;100945.16;5056175;28;20040;-76
2023/09/26 09:47:57;;;;;;;7.68;5.85;;;;;;;30.59;26.41;100968.78;5021293;28;20075;-76
2023/09/26 09:50:25;;;;;;;7.40;5.70;;;;;;;29.86;27.15;100970.34;5015645;28;20056;-77
2023/09/26 09:52:56;;;;;;;10.77;5.90;;;;;;;29.42;27.68;100956.13;5017059;28;20119;-76
2023/09/26 09:55:28;;;;;;;8.32;5.57;;;;;;;28.60;28.23;100958.47;5017368;28;20041;-76
2023/09/26 09:57:56;;;;;;;9.77;5.93;;;;;;;27.60;29.22;100948.13;5016638;28;20068;-76
2023/09/26 10:00:24;;;;;;;9.20;5.97;;;;;;;26.70;29.44;100955.41;4981544;28;20132;-79
2023/09/26 10:02:51;;;;;;;9.63;4.72;;;;;;;25.93;30.21;100976.31;4999677;28;20049;-77
2023/09/26 10:05:19;;;;;;;8.57;5.18;;;;;;;26.01;31.11;100951.69;5014776;28;20051;-77
2023/09/26 10:07:46;;;;;;;8.57;4.95;;;;;;;26.93;29.81;100949.97;5035431;28;20051;-78
2023/09/26 10:10:14;;;;;;;12.25;5.03;;;;;;;27.01;29.71;100948.00;5035212;28;20040;-76
2023/09/26 10:12:40;;;;;;;9.40;4.68;;;;;;;26.72;30.20;100940.53;5049511;28;20047;-77
2023/09/26 10:15:13;;;;;;;8.10;4.90;;;;;;;26.30;31.95;100945.56;5046906;28;20047;-77
2023/09/26 10:17:40;;;;;;;;;;;;;;;26.48;31.19;100954.38;5033904;28;20032;-75
2023/09/26 10:20:09;;;;;;;6.53;4.70;;;;;;;25.31;33.58;100937.88;5010058;28;19928;-75
2023/09/26 10:22:35;;;;;;;21.58;5.43;;;;;;;24.63;33.24;100943.66;5027043;28;20040;-76
2023/09/26 10:25:02;;;;;;;6.35;5.15;;;;;;;24.13;34.81;100947.31;5034754;28;20501;-77
2023/09/26 10:27:31;;;;;;;5.55;4.57;;;;;;;23.77;35.89;100934.91;5052658;28;20422;-76
2023/09/26 10:29:57;;;;;;;7.15;4.80;;;;;;;23.41;36.43;100935.00;5052593;28;20044;-74
2023/09/26 10:32:38;;;;;;;7.22;4.88;;;;;;;23.26;36.39;100931.16;5019521;28;20051;-73
2023/09/26 10:35:24;;;;;;;14.80;5.22;;;;;;;23.04;36.53;100920.81;5034691;28;20407;-72
2023/09/26 10:37:55;;;;;;;10.75;4.90;;;;;;;22.64;37.07;100937.63;5002751;28;20044;-72
2023/09/26 10:40:21;;;;;;;11.65;4.78;;;;;;;22.47;37.94;100928.44;5021253;28;20055;-72
2023/09/26 10:42:48;;;;;;;7.80;4.35;;;;;;;22.41;38.00;100939.94;5036542;28;20044;-73
2023/09/26 10:45:15;;;;;;;8.75;4.57;;;;;;;22.41;38.30;100929.06;5015978;28;20067;-74
2023/09/26 10:47:41;;;;;;;8.20;4.65;;;;;;;22.43;38.96;100948.81;5036172;28;20063;-73
2023/09/26 10:50:13;;;;;;;8.75;5.45;;;;;;;22.44;38.32;100926.06;5042766;28;20151;-73
2023/09/26 10:52:47;;;;;;;8.50;4.15;;;;;;;22.35;38.89;100935.97;4995581;28;20052;-73
2023/09/26 10:55:19;;;;;;;10.85;5.38;;;;;;;22.33;37.75;100916.28;5047641;28;20051;-74
2023/09/26 10:57:45;;;;;;;10.45;5.38;;;;;;;22.23;38.17;100904.63;5051588;28;20059;-75
2023/09/26 11:00:13;;;;;;;7.70;5.07;;;;;;;22.04;38.65;100931.91;5019699;28;20043;-72
2023/09/26 11:02:39;;;;;;;9.02;4.90;;;;;;;21.88;39.06;100913.53;5036579;28;20047;-72
2023/09/26 11:05:12;;;;;;;12.98;5.35;;;;;;;21.87;41.00;100911.81;5045375;28;20048;-73
2023/09/26 11:07:39;;;;;;;9.50;4.72;;;;;;;21.73;40.82;100906.88;5016574;28;20418;-71
2023/09/26 11:10:06;;;;;;;9.25;4.75;;;;;;;21.67;41.10;100902.91;5016793;28;20044;-71
2023/09/26 11:12:32;;;;;;;9.20;5.10;;;;;;;21.55;40.42;100909.56;5016721;28;20052;-72
2023/09/26 11:14:59;;;;;;;7.13;5.25;;;;;;;21.47;40.06;100901.28;5015957;28;20051;-72
2023/09/26 11:17:27;;;;;;;10.25;5.22;;;;;;;21.37;40.58;100885.06;5034481;28;20399;-72